sensor_id;sensor_type;location;lat;lon;timestamp;P1;durP1;ratioP1;P2;durP2;ratioP2
37221;SDS011;23119;51.842;-2.230;2023-04-09T00:01:10;9.17;;;3.67;;
37221;SDS011;23119;51.842;-2.230;2023-04-09T00:03:39;6.25;;;2.97;;
37221;SDS011;23119;51.842;-2.230;2023-04-09T00:06:05;8.43;;;4.00;;
37221;SDS011;23119;51.842;-2.230;2023-04-09T00:08:33;6.72;;;3.25;;
37221;SDS011;23119;51.842;-2.230;2023-04-09T00:11:05;6.43;;;3.30;;
37221;SDS011;23119;51.842;-2.230;2023-04-09T00:13:34;7.15;;;3.03;;
37221;SDS011;23119;51.842;-2.230;2023-04-09T00:16:00;9.60;;;3.72;;
37221;SDS011;23119;51.842;-2.230;2023-04-09T00:18:30;7.18;;;3.80;;
37221;SDS011;23119;51.842;-2.230;2023-04-09T00:21:05;6.88;;;3.63;;
37221;SDS011;23119;51.842;-2.230;2023-04-09T00:23:32;7.47;;;3.95;;
37221;SDS011;23119;51.842;-2.230;2023-04-09T00:25:59;7.70;;;3.95;;
37221;SDS011;23119;51.842;-2.230;2023-04-09T00:28:25;7.10;;;3.45;;
37221;SDS011;23119;51.842;-2.230;2023-04-09T00:30:53;6.60;;;3.25;;
37221;SDS011;23119;51.842;-2.230;2023-04-09T00:33:23;7.80;;;3.75;;
37221;SDS011;23119;51.842;-2.230;2023-04-09T00:35:52;8.82;;;4.30;;
37221;SDS011;23119;51.842;-2.230;2023-04-09T00:38:18;12.48;;;5.47;;
37221;SDS011;23119;51.842;-2.230;2023-04-09T00:40:47;9.68;;;4.47;;
37221;SDS011;23119;51.842;-2.230;2023-04-09T00:43:17;7.28;;;3.80;;
37221;SDS011;23119;51.842;-2.230;2023-04-09T00:45:43;10.25;;;4.47;;
37221;SDS011;23119;51.842;-2.230;2023-04-09T00:48:12;6.22;;;3.10;;
37221;SDS011;23119;51.842;-2.230;2023-04-09T00:50:40;8.40;;;3.25;;
37221;SDS011;23119;51.842;-2.230;2023-04-09T00:53:06;7.90;;;3.85;;
37221;SDS011;23119;51.842;-2.230;2023-04-09T00:55:34;8.52;;;3.15;;
37221;SDS011;23119;51.842;-2.230;2023-04-09T00:58:04;7.97;;;3.80;;
37221;SDS011;23119;51.842;-2.230;2023-04-09T01:00:33;8.13;;;3.80;;
37221;SDS011;23119;51.842;-2.230;2023-04-09T01:03:08;6.68;;;3.95;;
37221;SDS011;23119;51.842;-2.230;2023-04-09T01:05:42;6.70;;;3.58;;
37221;SDS011;23119;51.842;-2.230;2023-04-09T01:11:15;6.72;;;4.07;;
37221;SDS011;23119;51.842;-2.230;2023-04-09T01:17:03;8.13;;;4.72;;
37221;SDS011;23119;51.842;-2.230;2023-04-09T01:19:38;6.80;;;3.92;;
37221;SDS011;23119;51.842;-2.230;2023-04-09T01:22:08;6.57;;;3.58;;
37221;SDS011;23119;51.842;-2.230;2023-04-09T01:24:56;8.82;;;4.28;;
37221;SDS011;23119;51.842;-2.230;2023-04-09T01:27:33;9.75;;;4.20;;
37221;SDS011;23119;51.842;-2.230;2023-04-09T01:30:16;6.93;;;4.30;;
37221;SDS011;23119;51.842;-2.230;2023-04-09T01:32:42;6.38;;;4.35;;
37221;SDS011;23119;51.842;-2.230;2023-04-09T01:35:09;6.30;;;3.88;;
37221;SDS011;23119;51.842;-2.230;2023-04-09T01:37:38;8.93;;;4.30;;
37221;SDS011;23119;51.842;-2.230;2023-04-09T01:40:05;6.20;;;4.00;;
37221;SDS011;23119;51.842;-2.230;2023-04-09T01:42:31;7.40;;;3.70;;
37221;SDS011;23119;51.842;-2.230;2023-04-09T01:44:57;9.00;;;4.68;;
37221;SDS011;23119;51.842;-2.230;2023-04-09T01:47:25;9.15;;;3.95;;
37221;SDS011;23119;51.842;-2.230;2023-04-09T01:49:51;10.15;;;4.78;;
37221;SDS011;23119;51.842;-2.230;2023-04-09T01:52:18;7.72;;;3.78;;
37221;SDS011;23119;51.842;-2.230;2023-04-09T01:54:49;9.85;;;4.28;;
37221;SDS011;23119;51.842;-2.230;2023-04-09T01:57:18;7.22;;;3.85;;
37221;SDS011;23119;51.842;-2.230;2023-04-09T01:59:46;5.45;;;2.58;;
37221;SDS011;23119;51.842;-2.230;2023-04-09T02:02:24;8.68;;;2.30;;
37221;SDS011;23119;51.842;-2.230;2023-04-09T02:04:57;6.68;;;3.63;;
37221;SDS011;23119;51.842;-2.230;2023-04-09T02:10:09;5.30;;;3.55;;
37221;SDS011;23119;51.842;-2.230;2023-04-09T02:12:39;7.20;;;3.00;;
37221;SDS011;23119;51.842;-2.230;2023-04-09T02:15:15;8.23;;;3.35;;
37221;SDS011;23119;51.842;-2.230;2023-04-09T02:17:43;5.45;;;3.45;;
37221;SDS011;23119;51.842;-2.230;2023-04-09T02:20:09;6.55;;;3.58;;
37221;SDS011;23119;51.842;-2.230;2023-04-09T02:22:36;6.45;;;3.30;;
37221;SDS011;23119;51.842;-2.230;2023-04-09T02:25:05;6.35;;;3.28;;
37221;SDS011;23119;51.842;-2.230;2023-04-09T02:27:31;5.88;;;3.17;;
37221;SDS011;23119;51.842;-2.230;2023-04-09T02:29:57;6.75;;;2.95;;
37221;SDS011;23119;51.842;-2.230;2023-04-09T02:32:26;6.55;;;3.72;;
37221;SDS011;23119;51.842;-2.230;2023-04-09T02:34:54;6.22;;;3.20;;
37221;SDS011;23119;51.842;-2.230;2023-04-09T02:37:20;9.60;;;4.40;;
37221;SDS011;23119;51.842;-2.230;2023-04-09T02:39:54;8.32;;;4.15;;
37221;SDS011;23119;51.842;-2.230;2023-04-09T02:42:23;8.60;;;3.78;;
37221;SDS011;23119;51.842;-2.230;2023-04-09T02:44:49;5.78;;;3.00;;
37221;SDS011;23119;51.842;-2.230;2023-04-09T02:47:20;8.80;;;3.75;;
37221;SDS011;23119;51.842;-2.230;2023-04-09T02:49:54;6.13;;;3.28;;
37221;SDS011;23119;51.842;-2.230;2023-04-09T02:52:22;6.85;;;3.40;;
37221;SDS011;23119;51.842;-2.230;2023-04-09T02:54:51;6.82;;;2.70;;
37221;SDS011;23119;51.842;-2.230;2023-04-09T02:57:17;5.15;;;2.70;;
37221;SDS011;23119;51.842;-2.230;2023-04-09T02:59:43;5.18;;;2.67;;
37221;SDS011;23119;51.842;-2.230;2023-04-09T03:02:09;6.90;;;2.78;;
37221;SDS011;23119;51.842;-2.230;2023-04-09T03:04:35;6.18;;;2.58;;
37221;SDS011;23119;51.842;-2.230;2023-04-09T03:07:03;6.30;;;2.97;;
37221;SDS011;23119;51.842;-2.230;2023-04-09T03:09:32;6.00;;;2.63;;
37221;SDS011;23119;51.842;-2.230;2023-04-09T03:12:00;4.40;;;3.00;;
37221;SDS011;23119;51.842;-2.230;2023-04-09T03:14:29;6.57;;;2.45;;
37221;SDS011;23119;51.842;-2.230;2023-04-09T03:16:58;5.75;;;3.80;;
37221;SDS011;23119;51.842;-2.230;2023-04-09T03:19:23;9.52;;;4.03;;
37221;SDS011;23119;51.842;-2.230;2023-04-09T03:21:49;7.55;;;3.28;;
37221;SDS011;23119;51.842;-2.230;2023-04-09T03:24:15;6.88;;;2.75;;
37221;SDS011;23119;51.842;-2.230;2023-04-09T03:26:41;7.30;;;3.13;;
37221;SDS011;23119;51.842;-2.230;2023-04-09T03:29:12;5.90;;;3.20;;
37221;SDS011;23119;51.842;-2.230;2023-04-09T03:31:38;5.35;;;3.13;;
37221;SDS011;23119;51.842;-2.230;2023-04-09T03:34:06;6.45;;;3.35;;
37221;SDS011;23119;51.842;-2.230;2023-04-09T03:36:32;7.32;;;3.15;;
37221;SDS011;23119;51.842;-2.230;2023-04-09T03:39:00;6.38;;;3.30;;
37221;SDS011;23119;51.842;-2.230;2023-04-09T03:41:29;6.55;;;3.38;;
37221;SDS011;23119;51.842;-2.230;2023-04-09T03:43:55;7.38;;;3.50;;
37221;SDS011;23119;51.842;-2.230;2023-04-09T03:46:20;6.13;;;2.65;;
37221;SDS011;23119;51.842;-2.230;2023-04-09T03:48:46;6.20;;;3.10;;
37221;SDS011;23119;51.842;-2.230;2023-04-09T03:51:13;4.63;;;2.90;;
37221;SDS011;23119;51.842;-2.230;2023-04-09T03:53:40;9.43;;;3.50;;
37221;SDS011;23119;51.842;-2.230;2023-04-09T03:56:08;4.20;;;2.45;;
37221;SDS011;23119;51.842;-2.230;2023-04-09T03:58:37;5.90;;;2.63;;
37221;SDS011;23119;51.842;-2.230;2023-04-09T04:01:03;4.90;;;1.98;;
37221;SDS011;23119;51.842;-2.230;2023-04-09T04:03:29;6.82;;;3.10;;
37221;SDS011;23119;51.842;-2.230;2023-04-09T04:06:02;7.18;;;2.78;;
37221;SDS011;23119;51.842;-2.230;2023-04-09T04:08:28;7.47;;;3.13;;
37221;SDS011;23119;51.842;-2.230;2023-04-09T04:10:54;8.20;;;3.55;;
37221;SDS011;23119;51.842;-2.230;2023-04-09T04:13:31;6.72;;;2.85;;
37221;SDS011;23119;51.842;-2.230;2023-04-09T04:15:57;6.10;;;2.92;;
37221;SDS011;23119;51.842;-2.230;2023-04-09T04:18:23;6.53;;;2.60;;
37221;SDS011;23119;51.842;-2.230;2023-04-09T04:20:49;5.40;;;2.70;;
37221;SDS011;23119;51.842;-2.230;2023-04-09T04:23:17;5.35;;;2.30;;
37221;SDS011;23119;51.842;-2.230;2023-04-09T04:25:43;4.22;;;2.03;;
37221;SDS011;23119;51.842;-2.230;2023-04-09T04:28:08;8.18;;;2.78;;
37221;SDS011;23119;51.842;-2.230;2023-04-09T04:30:34;6.13;;;2.65;;
37221;SDS011;23119;51.842;-2.230;2023-04-09T04:33:05;5.38;;;2.50;;
37221;SDS011;23119;51.842;-2.230;2023-04-09T04:35:30;7.50;;;3.13;;
37221;SDS011;23119;51.842;-2.230;2023-04-09T04:37:56;8.00;;;3.50;;
37221;SDS011;23119;51.842;-2.230;2023-04-09T04:40:25;4.15;;;2.35;;
37221;SDS011;23119;51.842;-2.230;2023-04-09T04:42:53;6.90;;;3.30;;
37221;SDS011;23119;51.842;-2.230;2023-04-09T04:45:19;7.38;;;3.08;;
37221;SDS011;23119;51.842;-2.230;2023-04-09T04:47:45;8.45;;;3.97;;
37221;SDS011;23119;51.842;-2.230;2023-04-09T04:50:11;6.63;;;3.58;;
37221;SDS011;23119;51.842;-2.230;2023-04-09T04:52:39;8.40;;;3.80;;
37221;SDS011;23119;51.842;-2.230;2023-04-09T04:55:05;7.15;;;4.28;;
37221;SDS011;23119;51.842;-2.230;2023-04-09T04:57:36;9.38;;;4.90;;
37221;SDS011;23119;51.842;-2.230;2023-04-09T05:00:01;6.05;;;3.25;;
37221;SDS011;23119;51.842;-2.230;2023-04-09T05:02:28;12.27;;;4.50;;
37221;SDS011;23119;51.842;-2.230;2023-04-09T05:04:53;8.15;;;3.63;;
37221;SDS011;23119;51.842;-2.230;2023-04-09T05:07:22;10.50;;;6.35;;
37221;SDS011;23119;51.842;-2.230;2023-04-09T05:09:47;9.30;;;4.80;;
37221;SDS011;23119;51.842;-2.230;2023-04-09T05:12:13;12.85;;;6.15;;
37221;SDS011;23119;51.842;-2.230;2023-04-09T05:14:46;9.73;;;6.10;;
37221;SDS011;23119;51.842;-2.230;2023-04-09T05:17:15;13.33;;;6.80;;
37221;SDS011;23119;51.842;-2.230;2023-04-09T05:19:41;11.15;;;5.32;;
37221;SDS011;23119;51.842;-2.230;2023-04-09T05:22:06;12.20;;;5.72;;
37221;SDS011;23119;51.842;-2.230;2023-04-09T05:24:35;12.52;;;4.53;;
37221;SDS011;23119;51.842;-2.230;2023-04-09T05:27:00;15.73;;;8.15;;
37221;SDS011;23119;51.842;-2.230;2023-04-09T05:29:29;10.20;;;5.72;;
37221;SDS011;23119;51.842;-2.230;2023-04-09T05:31:58;17.00;;;6.82;;
37221;SDS011;23119;51.842;-2.230;2023-04-09T05:34:26;14.70;;;6.90;;
37221;SDS011;23119;51.842;-2.230;2023-04-09T05:36:54;16.90;;;7.18;;
37221;SDS011;23119;51.842;-2.230;2023-04-09T05:39:23;11.95;;;6.95;;
37221;SDS011;23119;51.842;-2.230;2023-04-09T05:41:49;15.32;;;6.65;;
37221;SDS011;23119;51.842;-2.230;2023-04-09T05:44:16;15.50;;;7.57;;
37221;SDS011;23119;51.842;-2.230;2023-04-09T05:46:42;12.88;;;6.32;;
37221;SDS011;23119;51.842;-2.230;2023-04-09T05:49:08;13.80;;;7.82;;
37221;SDS011;23119;51.842;-2.230;2023-04-09T05:51:36;15.18;;;7.07;;
37221;SDS011;23119;51.842;-2.230;2023-04-09T05:54:02;11.73;;;6.75;;
37221;SDS011;23119;51.842;-2.230;2023-04-09T05:56:28;13.02;;;7.05;;
37221;SDS011;23119;51.842;-2.230;2023-04-09T05:58:54;11.52;;;7.40;;
37221;SDS011;23119;51.842;-2.230;2023-04-09T06:01:20;13.07;;;7.82;;
37221;SDS011;23119;51.842;-2.230;2023-04-09T06:03:46;11.02;;;6.75;;
37221;SDS011;23119;51.842;-2.230;2023-04-09T06:06:12;11.20;;;6.95;;
37221;SDS011;23119;51.842;-2.230;2023-04-09T06:08:37;12.70;;;7.95;;
37221;SDS011;23119;51.842;-2.230;2023-04-09T06:11:07;11.50;;;7.20;;
37221;SDS011;23119;51.842;-2.230;2023-04-09T06:13:33;9.63;;;7.35;;
37221;SDS011;23119;51.842;-2.230;2023-04-09T06:16:05;14.63;;;7.22;;
37221;SDS011;23119;51.842;-2.230;2023-04-09T06:18:35;10.88;;;6.70;;
37221;SDS011;23119;51.842;-2.230;2023-04-09T06:21:04;10.52;;;6.43;;
37221;SDS011;23119;51.842;-2.230;2023-04-09T06:23:36;9.73;;;6.82;;
37221;SDS011;23119;51.842;-2.230;2023-04-09T06:26:02;8.75;;;6.85;;
37221;SDS011;23119;51.842;-2.230;2023-04-09T06:28:30;10.55;;;6.97;;
37221;SDS011;23119;51.842;-2.230;2023-04-09T06:31:01;9.32;;;7.13;;
37221;SDS011;23119;51.842;-2.230;2023-04-09T06:33:27;7.50;;;6.30;;
37221;SDS011;23119;51.842;-2.230;2023-04-09T06:35:52;9.88;;;6.95;;
37221;SDS011;23119;51.842;-2.230;2023-04-09T06:38:18;11.57;;;7.10;;
37221;SDS011;23119;51.842;-2.230;2023-04-09T06:40:46;9.80;;;7.53;;
37221;SDS011;23119;51.842;-2.230;2023-04-09T06:43:16;11.60;;;7.97;;
37221;SDS011;23119;51.842;-2.230;2023-04-09T06:45:41;11.00;;;8.68;;
37221;SDS011;23119;51.842;-2.230;2023-04-09T06:48:07;10.23;;;8.20;;
37221;SDS011;23119;51.842;-2.230;2023-04-09T06:50:33;10.20;;;8.48;;
37221;SDS011;23119;51.842;-2.230;2023-04-09T06:52:58;11.80;;;9.40;;
37221;SDS011;23119;51.842;-2.230;2023-04-09T06:55:24;11.25;;;9.00;;
37221;SDS011;23119;51.842;-2.230;2023-04-09T06:57:50;10.88;;;9.05;;
37221;SDS011;23119;51.842;-2.230;2023-04-09T07:00:19;11.05;;;9.70;;
37221;SDS011;23119;51.842;-2.230;2023-04-09T07:02:46;12.18;;;9.38;;
37221;SDS011;23119;51.842;-2.230;2023-04-09T07:05:18;12.30;;;10.02;;
37221;SDS011;23119;51.842;-2.230;2023-04-09T07:07:46;12.23;;;10.32;;
37221;SDS011;23119;51.842;-2.230;2023-04-09T07:10:18;14.20;;;10.88;;
37221;SDS011;23119;51.842;-2.230;2023-04-09T07:12:52;14.48;;;11.00;;
37221;SDS011;23119;51.842;-2.230;2023-04-09T07:15:18;15.88;;;10.65;;
37221;SDS011;23119;51.842;-2.230;2023-04-09T07:17:53;14.60;;;11.60;;
37221;SDS011;23119;51.842;-2.230;2023-04-09T07:20:18;17.85;;;12.13;;
37221;SDS011;23119;51.842;-2.230;2023-04-09T07:22:54;20.55;;;12.32;;
37221;SDS011;23119;51.842;-2.230;2023-04-09T07:25:22;19.25;;;11.45;;
37221;SDS011;23119;51.842;-2.230;2023-04-09T07:27:47;17.70;;;11.88;;
37221;SDS011;23119;51.842;-2.230;2023-04-09T07:30:13;21.02;;;12.23;;
37221;SDS011;23119;51.842;-2.230;2023-04-09T07:32:42;20.30;;;11.75;;
37221;SDS011;23119;51.842;-2.230;2023-04-09T07:35:16;20.33;;;12.45;;
37221;SDS011;23119;51.842;-2.230;2023-04-09T07:37:53;21.77;;;13.10;;
37221;SDS011;23119;51.842;-2.230;2023-04-09T07:40:23;24.65;;;12.70;;
37221;SDS011;23119;51.842;-2.230;2023-04-09T07:42:54;21.83;;;12.93;;
37221;SDS011;23119;51.842;-2.230;2023-04-09T07:45:22;23.77;;;14.02;;
37221;SDS011;23119;51.842;-2.230;2023-04-09T07:47:57;24.30;;;14.43;;
37221;SDS011;23119;51.842;-2.230;2023-04-09T07:50:28;28.98;;;14.18;;
37221;SDS011;23119;51.842;-2.230;2023-04-09T07:52:56;23.65;;;13.05;;
37221;SDS011;23119;51.842;-2.230;2023-04-09T07:55:22;25.83;;;13.80;;
37221;SDS011;23119;51.842;-2.230;2023-04-09T07:57:56;23.77;;;11.07;;
37221;SDS011;23119;51.842;-2.230;2023-04-09T08:00:28;27.55;;;14.27;;
37221;SDS011;23119;51.842;-2.230;2023-04-09T08:02:54;26.52;;;11.45;;
37221;SDS011;23119;51.842;-2.230;2023-04-09T08:05:25;27.45;;;14.32;;
37221;SDS011;23119;51.842;-2.230;2023-04-09T08:08:00;26.85;;;14.60;;
37221;SDS011;23119;51.842;-2.230;2023-04-09T08:10:26;28.08;;;15.45;;
37221;SDS011;23119;51.842;-2.230;2023-04-09T08:15:23;29.15;;;15.50;;
37221;SDS011;23119;51.842;-2.230;2023-04-09T08:17:51;27.13;;;15.05;;
37221;SDS011;23119;51.842;-2.230;2023-04-09T08:20:17;27.25;;;14.55;;
37221;SDS011;23119;51.842;-2.230;2023-04-09T08:22:43;28.85;;;14.60;;
37221;SDS011;23119;51.842;-2.230;2023-04-09T08:25:15;27.63;;;14.13;;
37221;SDS011;23119;51.842;-2.230;2023-04-09T08:27:41;25.17;;;13.57;;
37221;SDS011;23119;51.842;-2.230;2023-04-09T08:30:07;23.55;;;12.98;;
37221;SDS011;23119;51.842;-2.230;2023-04-09T08:32:36;23.63;;;12.60;;
37221;SDS011;23119;51.842;-2.230;2023-04-09T08:35:04;21.55;;;14.10;;
37221;SDS011;23119;51.842;-2.230;2023-04-09T08:37:31;25.63;;;14.57;;
37221;SDS011;23119;51.842;-2.230;2023-04-09T08:39:59;25.73;;;11.95;;
37221;SDS011;23119;51.842;-2.230;2023-04-09T08:42:28;25.38;;;12.35;;
37221;SDS011;23119;51.842;-2.230;2023-04-09T08:44:55;25.10;;;12.50;;
37221;SDS011;23119;51.842;-2.230;2023-04-09T08:47:21;21.58;;;10.88;;
37221;SDS011;23119;51.842;-2.230;2023-04-09T08:49:47;24.42;;;13.43;;
37221;SDS011;23119;51.842;-2.230;2023-04-09T08:52:18;23.88;;;12.63;;
37221;SDS011;23119;51.842;-2.230;2023-04-09T08:54:57;27.50;;;12.77;;
37221;SDS011;23119;51.842;-2.230;2023-04-09T08:57:25;29.40;;;13.68;;
37221;SDS011;23119;51.842;-2.230;2023-04-09T08:59:56;28.60;;;12.70;;
37221;SDS011;23119;51.842;-2.230;2023-04-09T09:02:31;24.60;;;13.10;;
37221;SDS011;23119;51.842;-2.230;2023-04-09T09:05:00;26.50;;;12.00;;
37221;SDS011;23119;51.842;-2.230;2023-04-09T09:07:49;25.95;;;13.45;;
37221;SDS011;23119;51.842;-2.230;2023-04-09T09:10:17;26.98;;;13.95;;
37221;SDS011;23119;51.842;-2.230;2023-04-09T09:12:48;28.88;;;15.18;;
37221;SDS011;23119;51.842;-2.230;2023-04-09T09:17:57;26.45;;;14.20;;
37221;SDS011;23119;51.842;-2.230;2023-04-09T09:20:24;29.17;;;13.93;;
37221;SDS011;23119;51.842;-2.230;2023-04-09T09:22:59;27.75;;;13.80;;
37221;SDS011;23119;51.842;-2.230;2023-04-09T09:25:31;23.92;;;13.43;;
37221;SDS011;23119;51.842;-2.230;2023-04-09T09:28:11;23.27;;;10.70;;
37221;SDS011;23119;51.842;-2.230;2023-04-09T09:30:46;23.05;;;12.32;;
37221;SDS011;23119;51.842;-2.230;2023-04-09T09:33:14;29.17;;;14.55;;
37221;SDS011;23119;51.842;-2.230;2023-04-09T09:38:16;27.52;;;13.60;;
37221;SDS011;23119;51.842;-2.230;2023-04-09T09:40:46;25.50;;;13.02;;
37221;SDS011;23119;51.842;-2.230;2023-04-09T09:45:48;25.55;;;12.52;;
37221;SDS011;23119;51.842;-2.230;2023-04-09T09:48:14;27.27;;;13.73;;
37221;SDS011;23119;51.842;-2.230;2023-04-09T09:50:45;24.48;;;12.10;;
37221;SDS011;23119;51.842;-2.230;2023-04-09T09:53:16;29.70;;;15.15;;
37221;SDS011;23119;51.842;-2.230;2023-04-09T09:55:47;26.92;;;12.75;;
37221;SDS011;23119;51.842;-2.230;2023-04-09T09:58:21;25.23;;;14.27;;
37221;SDS011;23119;51.842;-2.230;2023-04-09T10:00:55;25.90;;;12.70;;
37221;SDS011;23119;51.842;-2.230;2023-04-09T10:03:24;23.65;;;13.18;;
37221;SDS011;23119;51.842;-2.230;2023-04-09T10:05:54;28.00;;;14.23;;
37221;SDS011;23119;51.842;-2.230;2023-04-09T10:08:21;25.67;;;12.68;;
37221;SDS011;23119;51.842;-2.230;2023-04-09T10:10:51;25.80;;;14.77;;
37221;SDS011;23119;51.842;-2.230;2023-04-09T10:13:24;26.98;;;12.85;;
37221;SDS011;23119;51.842;-2.230;2023-04-09T10:15:55;23.83;;;13.15;;
37221;SDS011;23119;51.842;-2.230;2023-04-09T10:18:23;22.30;;;13.05;;
37221;SDS011;23119;51.842;-2.230;2023-04-09T10:21:11;24.85;;;13.80;;
37221;SDS011;23119;51.842;-2.230;2023-04-09T10:26:11;21.75;;;11.35;;
37221;SDS011;23119;51.842;-2.230;2023-04-09T10:28:37;24.45;;;13.48;;
37221;SDS011;23119;51.842;-2.230;2023-04-09T10:31:06;23.58;;;13.90;;
37221;SDS011;23119;51.842;-2.230;2023-04-09T10:33:35;24.80;;;12.60;;
37221;SDS011;23119;51.842;-2.230;2023-04-09T10:36:04;22.17;;;12.40;;
37221;SDS011;23119;51.842;-2.230;2023-04-09T10:41:06;24.15;;;12.85;;
37221;SDS011;23119;51.842;-2.230;2023-04-09T10:43:32;24.42;;;14.25;;
37221;SDS011;23119;51.842;-2.230;2023-04-09T10:46:03;24.88;;;15.02;;
37221;SDS011;23119;51.842;-2.230;2023-04-09T10:48:33;25.15;;;14.32;;
37221;SDS011;23119;51.842;-2.230;2023-04-09T10:51:01;27.75;;;14.57;;
37221;SDS011;23119;51.842;-2.230;2023-04-09T10:53:29;27.50;;;13.13;;
37221;SDS011;23119;51.842;-2.230;2023-04-09T10:55:59;26.50;;;14.63;;
37221;SDS011;23119;51.842;-2.230;2023-04-09T10:58:25;27.13;;;15.07;;
37221;SDS011;23119;51.842;-2.230;2023-04-09T11:00:52;20.67;;;12.45;;
37221;SDS011;23119;51.842;-2.230;2023-04-09T11:03:25;25.00;;;14.07;;
37221;SDS011;23119;51.842;-2.230;2023-04-09T11:06:03;22.25;;;13.75;;
37221;SDS011;23119;51.842;-2.230;2023-04-09T11:08:34;25.30;;;14.63;;
37221;SDS011;23119;51.842;-2.230;2023-04-09T11:11:05;22.17;;;13.85;;
37221;SDS011;23119;51.842;-2.230;2023-04-09T11:13:31;24.95;;;14.13;;
37221;SDS011;23119;51.842;-2.230;2023-04-09T11:15:58;23.58;;;13.48;;
37221;SDS011;23119;51.842;-2.230;2023-04-09T11:18:25;22.58;;;13.93;;
37221;SDS011;23119;51.842;-2.230;2023-04-09T11:20:56;24.67;;;12.40;;
37221;SDS011;23119;51.842;-2.230;2023-04-09T11:23:25;22.25;;;12.80;;
37221;SDS011;23119;51.842;-2.230;2023-04-09T11:25:52;19.00;;;12.88;;
37221;SDS011;23119;51.842;-2.230;2023-04-09T11:28:18;23.75;;;12.10;;
37221;SDS011;23119;51.842;-2.230;2023-04-09T11:30:44;22.13;;;12.98;;
37221;SDS011;23119;51.842;-2.230;2023-04-09T11:33:13;16.45;;;8.13;;
37221;SDS011;23119;51.842;-2.230;2023-04-09T11:35:39;25.48;;;15.05;;
37221;SDS011;23119;51.842;-2.230;2023-04-09T11:38:07;19.50;;;12.68;;
37221;SDS011;23119;51.842;-2.230;2023-04-09T11:40:34;20.23;;;12.40;;
37221;SDS011;23119;51.842;-2.230;2023-04-09T11:43:01;21.35;;;11.25;;
37221;SDS011;23119;51.842;-2.230;2023-04-09T11:45:29;17.35;;;11.10;;
37221;SDS011;23119;51.842;-2.230;2023-04-09T11:48:01;17.55;;;11.93;;
37221;SDS011;23119;51.842;-2.230;2023-04-09T11:50:27;20.83;;;11.88;;
37221;SDS011;23119;51.842;-2.230;2023-04-09T11:52:55;9.55;;;5.95;;
37221;SDS011;23119;51.842;-2.230;2023-04-09T11:55:42;19.73;;;11.20;;
37221;SDS011;23119;51.842;-2.230;2023-04-09T11:58:11;17.48;;;11.80;;
37221;SDS011;23119;51.842;-2.230;2023-04-09T12:00:39;19.52;;;11.63;;
37221;SDS011;23119;51.842;-2.230;2023-04-09T12:03:05;14.55;;;8.48;;
37221;SDS011;23119;51.842;-2.230;2023-04-09T12:05:33;14.57;;;8.68;;
37221;SDS011;23119;51.842;-2.230;2023-04-09T12:08:00;13.93;;;8.38;;
37221;SDS011;23119;51.842;-2.230;2023-04-09T12:10:33;13.73;;;6.72;;
37221;SDS011;23119;51.842;-2.230;2023-04-09T12:13:01;16.38;;;9.75;;
37221;SDS011;23119;51.842;-2.230;2023-04-09T12:15:33;13.95;;;8.27;;
37221;SDS011;23119;51.842;-2.230;2023-04-09T12:18:03;15.27;;;8.88;;
37221;SDS011;23119;51.842;-2.230;2023-04-09T12:20:39;15.60;;;8.85;;
37221;SDS011;23119;51.842;-2.230;2023-04-09T12:23:08;18.10;;;9.25;;
37221;SDS011;23119;51.842;-2.230;2023-04-09T12:25:35;14.48;;;8.98;;
37221;SDS011;23119;51.842;-2.230;2023-04-09T12:28:03;18.63;;;8.75;;
37221;SDS011;23119;51.842;-2.230;2023-04-09T12:30:30;17.30;;;9.10;;
37221;SDS011;23119;51.842;-2.230;2023-04-09T12:32:56;13.88;;;9.30;;
37221;SDS011;23119;51.842;-2.230;2023-04-09T12:35:26;13.13;;;6.97;;
37221;SDS011;23119;51.842;-2.230;2023-04-09T12:37:54;14.30;;;8.88;;
37221;SDS011;23119;51.842;-2.230;2023-04-09T12:40:20;17.25;;;9.13;;
37221;SDS011;23119;51.842;-2.230;2023-04-09T12:42:47;19.88;;;8.90;;
37221;SDS011;23119;51.842;-2.230;2023-04-09T12:45:14;15.30;;;8.98;;
37221;SDS011;23119;51.842;-2.230;2023-04-09T12:47:41;15.00;;;8.30;;
37221;SDS011;23119;51.842;-2.230;2023-04-09T12:50:15;12.00;;;7.40;;
37221;SDS011;23119;51.842;-2.230;2023-04-09T12:52:41;9.82;;;6.28;;
37221;SDS011;23119;51.842;-2.230;2023-04-09T12:55:08;11.85;;;6.45;;
37221;SDS011;23119;51.842;-2.230;2023-04-09T12:57:37;10.65;;;5.32;;
37221;SDS011;23119;51.842;-2.230;2023-04-09T13:00:05;11.27;;;4.72;;
37221;SDS011;23119;51.842;-2.230;2023-04-09T13:02:31;8.10;;;4.68;;
37221;SDS011;23119;51.842;-2.230;2023-04-09T13:04:58;6.63;;;4.05;;
37221;SDS011;23119;51.842;-2.230;2023-04-09T13:07:28;10.45;;;5.55;;
37221;SDS011;23119;51.842;-2.230;2023-04-09T13:09:54;7.43;;;3.50;;
37221;SDS011;23119;51.842;-2.230;2023-04-09T13:12:21;6.95;;;4.05;;
37221;SDS011;23119;51.842;-2.230;2023-04-09T13:14:47;7.90;;;5.03;;
37221;SDS011;23119;51.842;-2.230;2023-04-09T13:17:15;8.50;;;4.28;;
37221;SDS011;23119;51.842;-2.230;2023-04-09T13:19:41;8.43;;;4.82;;
37221;SDS011;23119;51.842;-2.230;2023-04-09T13:22:12;10.60;;;5.55;;
37221;SDS011;23119;51.842;-2.230;2023-04-09T13:24:38;11.07;;;5.68;;
37221;SDS011;23119;51.842;-2.230;2023-04-09T13:27:07;8.10;;;4.30;;
37221;SDS011;23119;51.842;-2.230;2023-04-09T13:29:33;6.18;;;3.45;;
37221;SDS011;23119;51.842;-2.230;2023-04-09T13:32:00;7.10;;;3.30;;
37221;SDS011;23119;51.842;-2.230;2023-04-09T13:34:31;6.30;;;2.92;;
37221;SDS011;23119;51.842;-2.230;2023-04-09T13:36:58;6.57;;;2.70;;
37221;SDS011;23119;51.842;-2.230;2023-04-09T13:39:24;7.50;;;2.90;;
37221;SDS011;23119;51.842;-2.230;2023-04-09T13:41:52;2.97;;;1.25;;
37221;SDS011;23119;51.842;-2.230;2023-04-09T13:44:21;6.60;;;2.42;;
37221;SDS011;23119;51.842;-2.230;2023-04-09T13:46:53;6.97;;;2.42;;
37221;SDS011;23119;51.842;-2.230;2023-04-09T13:49:19;6.68;;;2.90;;
37221;SDS011;23119;51.842;-2.230;2023-04-09T13:51:45;4.45;;;2.85;;
37221;SDS011;23119;51.842;-2.230;2023-04-09T13:54:15;4.75;;;2.00;;
37221;SDS011;23119;51.842;-2.230;2023-04-09T13:56:46;4.60;;;2.13;;
37221;SDS011;23119;51.842;-2.230;2023-04-09T13:59:15;4.22;;;1.95;;
37221;SDS011;23119;51.842;-2.230;2023-04-09T14:01:40;5.32;;;2.50;;
37221;SDS011;23119;51.842;-2.230;2023-04-09T14:04:06;6.80;;;1.83;;
37221;SDS011;23119;51.842;-2.230;2023-04-09T14:06:34;3.72;;;1.65;;
37221;SDS011;23119;51.842;-2.230;2023-04-09T14:09:00;3.05;;;1.77;;
37221;SDS011;23119;51.842;-2.230;2023-04-09T14:11:26;5.95;;;1.80;;
37221;SDS011;23119;51.842;-2.230;2023-04-09T14:13:55;5.13;;;1.60;;
37221;SDS011;23119;51.842;-2.230;2023-04-09T14:16:20;9.15;;;2.45;;
37221;SDS011;23119;51.842;-2.230;2023-04-09T14:18:49;4.90;;;2.13;;
37221;SDS011;23119;51.842;-2.230;2023-04-09T14:21:15;8.10;;;1.90;;
37221;SDS011;23119;51.842;-2.230;2023-04-09T14:23:43;4.22;;;1.80;;
37221;SDS011;23119;51.842;-2.230;2023-04-09T14:26:12;6.32;;;2.00;;
37221;SDS011;23119;51.842;-2.230;2023-04-09T14:28:38;6.25;;;2.17;;
37221;SDS011;23119;51.842;-2.230;2023-04-09T14:31:07;5.20;;;1.45;;
37221;SDS011;23119;51.842;-2.230;2023-04-09T14:33:33;3.55;;;1.52;;
37221;SDS011;23119;51.842;-2.230;2023-04-09T14:36:02;5.75;;;1.70;;
37221;SDS011;23119;51.842;-2.230;2023-04-09T14:38:34;3.22;;;1.60;;
37221;SDS011;23119;51.842;-2.230;2023-04-09T14:41:03;3.72;;;1.42;;
37221;SDS011;23119;51.842;-2.230;2023-04-09T14:43:50;4.28;;;1.90;;
37221;SDS011;23119;51.842;-2.230;2023-04-09T14:46:20;4.15;;;1.60;;
37221;SDS011;23119;51.842;-2.230;2023-04-09T14:48:51;3.87;;;1.43;;
37221;SDS011;23119;51.842;-2.230;2023-04-09T14:51:19;4.80;;;1.97;;
37221;SDS011;23119;51.842;-2.230;2023-04-09T14:53:47;6.43;;;1.77;;
37221;SDS011;23119;51.842;-2.230;2023-04-09T14:56:20;2.85;;;1.50;;